Time;durP1;ratioP1;P1;durP2;ratioP2;P2;SDS_P1;SDS_P2;PMS_P1;PMS_P2;Temp;Humidity;BMP_temperature;BMP_pressure;BME280_temperature;BME280_humidity;BME280_pressure;Samples;Min_cycle;Max_cycle;Signal;HPM_P1;HPM_P2
2022/07/22 00:02:08;;;;;;;1.17;1.10;;;29.10;53.00;;;;;;5051094;28;20498;-78
2022/07/22 00:04:36;;;;;;;1.30;1.20;;;29.10;53.10;;;;;;5052309;28;20447;-78
2022/07/22 00:07:04;;;;;;;1.13;1.00;;;29.10;52.80;;;;;;5054788;28;20977;-79
2022/07/22 00:09:32;;;;;;;2.20;1.10;;;29.10;52.80;;;;;;5066556;28;20532;-79
2022/07/22 00:12:00;;;;;;;4.47;1.63;;;29.10;52.90;;;;;;5055988;28;20508;-79
2022/07/22 00:14:28;;;;;;;4.23;1.10;;;29.10;52.70;;;;;;5054619;28;20465;-80
2022/07/22 00:16:55;;;;;;;1.63;1.40;;;29.10;52.60;;;;;;5055419;28;20522;-79
2022/07/22 00:19:25;;;;;;;1.77;1.00;;;29.10;52.70;;;;;;5047833;28;20438;-79
2022/07/22 00:21:52;;;;;;;2.03;1.20;;;29.10;52.60;;;;;;5055508;28;20517;-79
2022/07/22 00:24:20;;;;;;;1.57;1.20;;;29.10;52.70;;;;;;5055304;28;20440;-79
2022/07/22 00:26:48;;;;;;;2.40;1.40;;;29.10;52.70;;;;;;5054540;28;20568;-79
2022/07/22 00:29:16;;;;;;;3.73;1.40;;;29.10;52.50;;;;;;5055860;28;20446;-79
2022/07/22 00:31:44;;;;;;;3.13;1.50;;;29.10;52.30;;;;;;5055771;28;20442;-79
2022/07/22 00:34:12;;;;;;;6.00;1.40;;;29.10;52.20;;;;;;5053037;28;20501;-79
2022/07/22 00:36:41;;;;;;;2.77;1.30;;;29.10;52.40;;;;;;5047238;28;20519;-78
2022/07/22 00:39:09;;;;;;;1.60;1.40;;;29.10;52.40;;;;;;5052746;28;20449;-78
2022/07/22 00:41:37;;;;;;;1.60;1.30;;;29.00;52.40;;;;;;5054449;28;20428;-79
2022/07/22 00:44:06;;;;;;;2.20;1.20;;;29.10;52.20;;;;;;5054521;28;20561;-79
2022/07/22 00:46:35;;;;;;;2.73;1.40;;;29.10;52.20;;;;;;5054167;28;20449;-79
2022/07/22 00:49:03;;;;;;;2.63;1.40;;;29.00;52.00;;;;;;5054875;28;20451;-79
2022/07/22 00:51:31;;;;;;;3.30;1.47;;;29.10;52.00;;;;;;5053101;28;20451;-78
2022/07/22 00:54:01;;;;;;;2.60;1.10;;;29.00;52.00;;;;;;5046831;28;20565;-78
2022/07/22 00:56:29;;;;;;;10.70;1.70;;;29.00;51.80;;;;;;5054697;28;21031;-79
2022/07/22 00:58:59;;;;;;;3.40;1.20;;;29.00;51.50;;;;;;5055188;28;20446;-79
2022/07/22 01:01:27;;;;;;;3.07;1.33;;;29.00;51.50;;;;;;5054789;28;20443;-79
2022/07/22 01:03:55;;;;;;;3.23;1.30;;;29.00;51.50;;;;;;5054660;28;20448;-79
2022/07/22 01:06:28;;;;;;;1.53;1.20;;;29.00;51.50;;;;;;5053152;28;20498;-80
2022/07/22 01:08:56;;;;;;;1.40;1.30;;;28.90;51.40;;;;;;5047201;28;20526;-79
2022/07/22 01:11:26;;;;;;;3.27;1.10;;;28.90;51.40;;;;;;5055299;28;20413;-79
2022/07/22 01:13:54;;;;;;;2.00;1.10;;;28.90;51.30;;;;;;5055898;28;20429;-79
2022/07/22 01:16:23;;;;;;;2.07;1.30;;;28.90;51.40;;;;;;5036440;28;20436;-80
2022/07/22 01:18:50;;;;;;;5.63;1.60;;;28.90;51.40;;;;;;5035435;28;20452;-80
2022/07/22 01:21:20;;;;;;;3.33;1.23;;;29.00;51.50;;;;;;5035584;28;20426;-80
2022/07/22 01:23:48;;;;;;;1.03;0.90;;;28.90;51.30;;;;;;5043305;28;20579;-80
2022/07/22 01:26:17;;;;;;;1.87;1.30;;;28.90;51.20;;;;;;5046758;28;20462;-79
2022/07/22 01:28:45;;;;;;;1.30;1.20;;;28.90;51.20;;;;;;5055603;28;20533;-79
2022/07/22 01:31:13;;;;;;;2.60;1.10;;;28.90;51.20;;;;;;5055789;28;20447;-79
2022/07/22 01:33:41;;;;;;;6.30;1.30;;;28.90;51.10;;;;;;5055326;28;20448;-79
2022/07/22 01:36:09;;;;;;;2.13;1.07;;;28.90;51.00;;;;;;5054781;28;20537;-80
2022/07/22 01:38:39;;;;;;;3.27;1.13;;;28.90;51.00;;;;;;5055533;28;20439;-80
2022/07/22 01:41:07;;;;;;;6.30;1.40;;;28.90;51.00;;;;;;5052928;28;20537;-80
2022/07/22 01:43:35;;;;;;;2.53;1.30;;;28.90;51.00;;;;;;5045491;28;20495;-79
2022/07/22 01:46:03;;;;;;;1.03;0.93;;;28.90;50.90;;;;;;5053693;28;20562;-78
2022/07/22 01:48:32;;;;;;;1.80;1.30;;;28.90;51.10;;;;;;5056110;28;20429;-80
2022/07/22 01:51:00;;;;;;;1.57;1.17;;;28.90;51.00;;;;;;5054450;28;20482;-80
2022/07/22 01:53:28;;;;;;;1.53;1.23;;;28.90;50.80;;;;;;5056025;28;20558;-80
2022/07/22 01:55:58;;;;;;;2.13;1.30;;;28.90;50.70;;;;;;5053863;28;20425;-80
2022/07/22 01:58:26;;;;;;;2.83;1.33;;;28.90;50.80;;;;;;5053698;28;20562;-79
2022/07/22 02:00:54;;;;;;;1.30;1.20;;;28.90;50.70;;;;;;5034607;28;20965;-80
2022/07/22 02:03:22;;;;;;;4.70;1.23;;;28.90;50.80;;;;;;5033872;28;20474;-80
2022/07/22 02:05:50;;;;;;;2.00;1.17;;;28.90;50.70;;;;;;5046374;28;20474;-79
2022/07/22 02:08:18;;;;;;;5.13;1.60;;;28.90;50.80;;;;;;5053314;28;20450;-79
2022/07/22 02:10:46;;;;;;;4.90;1.30;;;28.80;50.60;;;;;;5054263;28;20528;-81
2022/07/22 02:13:15;;;;;;;1.57;1.10;;;28.80;50.50;;;;;;5053931;28;20455;-80
2022/07/22 02:15:43;;;;;;;3.00;1.20;;;28.90;50.60;;;;;;5042982;28;20446;-80
2022/07/22 02:18:12;;;;;;;1.50;1.40;;;28.80;50.60;;;;;;5055487;28;20455;-80
2022/07/22 02:20:40;;;;;;;1.47;1.13;;;28.80;50.70;;;;;;5055302;28;20508;-80
2022/07/22 02:23:08;;;;;;;2.37;1.50;;;28.80;50.60;;;;;;5054822;28;20441;-80
2022/07/22 02:25:36;;;;;;;2.00;1.43;;;28.90;50.60;;;;;;5054466;28;20421;-79
2022/07/22 02:28:04;;;;;;;10.10;1.47;;;28.80;50.60;;;;;;5054775;28;20474;-80
2022/07/22 02:30:34;;;;;;;2.33;1.33;;;28.80;50.60;;;;;;5045053;28;20519;-79
2022/07/22 02:33:02;;;;;;;1.80;1.23;;;28.80;50.60;;;;;;5046877;28;20476;-80
2022/07/22 02:35:30;;;;;;;2.67;1.17;;;28.80;50.70;;;;;;5061844;28;20463;-79
2022/07/22 02:37:58;;;;;;;1.30;1.20;;;28.80;51.30;;;;;;5057197;28;20437;-80
2022/07/22 02:40:29;;;;;;;2.30;1.17;;;28.80;50.70;;;;;;5064032;28;20953;-80
2022/07/22 02:42:57;;;;;;;1.30;1.20;;;28.80;50.70;;;;;;5053937;28;20474;-80
2022/07/22 02:45:24;;;;;;;2.83;1.30;;;28.80;50.70;;;;;;5051441;28;20447;-79
2022/07/22 02:47:55;;;;;;;1.10;1.00;;;28.80;50.80;;;;;;5052218;28;20501;-79
2022/07/22 02:50:23;;;;;;;2.50;1.20;;;28.80;50.80;;;;;;5053189;28;20417;-79
2022/07/22 02:52:50;;;;;;;2.30;1.10;;;28.80;50.70;;;;;;5053577;28;20441;-79
2022/07/22 02:55:18;;;;;;;1.63;1.17;;;28.80;50.80;;;;;;5052817;28;20429;-78
2022/07/22 02:57:46;;;;;;;1.23;1.13;;;28.80;50.70;;;;;;5052814;28;20442;-79
2022/07/22 03:00:15;;;;;;;1.20;1.10;;;28.80;50.60;;;;;;5052845;28;20428;-78
2022/07/22 03:02:43;;;;;;;3.17;1.27;;;28.80;50.60;;;;;;5049698;28;20524;-78
2022/07/22 03:05:12;;;;;;;1.47;1.13;;;28.80;50.40;;;;;;5044792;28;20510;-78
2022/07/22 03:07:40;;;;;;;3.53;1.30;;;28.80;50.40;;;;;;5051631;28;20513;-78
2022/07/22 03:10:09;;;;;;;3.33;1.37;;;28.80;50.50;;;;;;5053404;28;20450;-79
2022/07/22 03:12:37;;;;;;;2.87;1.10;;;28.80;50.60;;;;;;5053659;28;20534;-79
2022/07/22 03:15:06;;;;;;;4.50;1.20;;;28.70;50.40;;;;;;5052293;28;20428;-78
2022/07/22 03:17:34;;;;;;;6.23;1.50;;;28.80;50.40;;;;;;5049716;28;20445;-81
2022/07/22 03:20:03;;;;;;;1.10;1.00;;;28.70;50.00;;;;;;5062841;28;20939;-79
2022/07/22 03:22:33;;;;;;;1.43;1.20;;;28.70;50.10;;;;;;5065362;28;20470;-79
2022/07/22 03:25:01;;;;;;;1.80;1.10;;;28.70;50.20;;;;;;5054029;28;20469;-80
2022/07/22 03:27:29;;;;;;;4.17;1.40;;;28.70;50.20;;;;;;5055143;28;20538;-80
2022/07/22 03:29:56;;;;;;;2.90;1.30;;;28.60;50.10;;;;;;5054541;28;20525;-79
2022/07/22 03:32:24;;;;;;;3.83;1.27;;;28.60;50.20;;;;;;5054647;28;20437;-80
2022/07/22 03:34:53;;;;;;;2.23;1.60;;;28.70;50.10;;;;;;5050333;28;20458;-79
2022/07/22 03:37:29;;;;;;;4.33;1.63;;;28.70;49.90;;;;;;5050946;28;20444;-80
2022/07/22 03:39:59;;;;;;;5.27;1.67;;;28.70;49.90;;;;;;5054523;28;20871;-80
2022/07/22 03:42:27;;;;;;;3.13;1.60;;;28.70;49.80;;;;;;5054287;28;20466;-81
2022/07/22 03:44:55;;;;;;;1.93;1.43;;;28.70;49.80;;;;;;5054295;28;20541;-80
2022/07/22 03:47:23;;;;;;;2.80;1.23;;;28.70;49.80;;;;;;5054338;28;20474;-80
2022/07/22 03:49:51;;;;;;;2.27;1.87;;;28.70;49.80;;;;;;5048999;28;20456;-80
2022/07/22 03:52:19;;;;;;;4.07;1.83;;;28.70;49.90;;;;;;5054210;28;20457;-81
2022/07/22 03:54:47;;;;;;;3.27;1.60;;;28.70;49.90;;;;;;5046035;28;20437;-81
2022/07/22 03:57:16;;;;;;;4.37;1.57;;;28.70;49.90;;;;;;5054543;28;20466;-80
2022/07/22 03:59:44;;;;;;;6.10;1.67;;;28.80;50.00;;;;;;5054815;28;20525;-80
2022/07/22 04:02:12;;;;;;;7.13;1.40;;;28.70;50.00;;;;;;5054243;28;20496;-80
2022/07/22 04:04:40;;;;;;;1.90;1.57;;;28.70;50.10;;;;;;5056567;28;20489;-79
2022/07/22 04:07:08;;;;;;;8.63;1.93;;;28.70;50.10;;;;;;5057791;28;20447;-80
2022/07/22 04:09:36;;;;;;;4.17;1.73;;;28.70;50.10;;;;;;5058283;28;20894;-79
2022/07/22 04:12:05;;;;;;;4.20;1.30;;;28.70;50.10;;;;;;5058806;28;20509;-80
2022/07/22 04:14:34;;;;;;;3.50;1.53;;;28.70;50.20;;;;;;5058585;28;20466;-80
2022/07/22 04:17:02;;;;;;;5.00;1.50;;;28.80;50.20;;;;;;5058146;28;20530;-80
2022/07/22 04:19:30;;;;;;;4.07;1.23;;;28.70;50.10;;;;;;5058968;28;20424;-80
2022/07/22 04:21:58;;;;;;;2.07;1.07;;;28.70;50.20;;;;;;5058327;28;20441;-80
2022/07/22 04:24:26;;;;;;;5.37;1.60;;;28.70;50.20;;;;;;5057033;28;20553;-80
2022/07/22 04:26:54;;;;;;;2.80;1.40;;;28.70;50.10;;;;;;5049072;28;20446;-80
2022/07/22 04:29:22;;;;;;;3.67;1.90;;;28.70;50.20;;;;;;5058313;28;20522;-80
2022/07/22 04:31:52;;;;;;;2.97;1.37;;;28.70;50.30;;;;;;5057826;28;20437;-80
2022/07/22 04:34:26;;;;;;;5.53;1.63;;;28.70;50.20;;;;;;5057403;28;20476;-81
2022/07/22 04:36:54;;;;;;;2.50;1.43;;;28.70;50.20;;;;;;5057729;28;20443;-81
2022/07/22 04:39:22;;;;;;;2.80;1.30;;;28.70;50.20;;;;;;5057743;28;20449;-81
2022/07/22 04:41:50;;;;;;;2.37;1.83;;;28.70;50.30;;;;;;5057164;28;20500;-81
2022/07/22 04:44:18;;;;;;;2.23;1.23;;;28.70;50.20;;;;;;5049338;28;20481;-81
2022/07/22 04:46:45;;;;;;;1.60;1.47;;;28.70;50.40;;;;;;5056488;28;20527;-80
2022/07/22 04:49:15;;;;;;;2.97;1.60;;;28.70;50.40;;;;;;5057287;28;20563;-81
2022/07/22 04:51:43;;;;;;;1.30;1.20;;;28.70;50.30;;;;;;5056600;28;20442;-80
2022/07/22 04:54:12;;;;;;;2.80;1.50;;;28.80;50.40;;;;;;5055562;28;20536;-80
2022/07/22 04:56:41;;;;;;;1.77;1.53;;;28.70;50.40;;;;;;5054339;28;20977;-80
2022/07/22 04:59:11;;;;;;;4.30;1.53;;;28.70;50.40;;;;;;5054627;28;20503;-80
2022/07/22 05:01:39;;;;;;;1.47;1.40;;;28.70;50.40;;;;;;5041983;28;20535;-80
2022/07/22 05:04:07;;;;;;;2.33;1.20;;;28.70;50.50;;;;;;5056479;28;20497;-80
2022/07/22 05:06:36;;;;;;;3.03;1.40;;;28.70;50.40;;;;;;5055966;28;20517;-81
2022/07/22 05:09:04;;;;;;;1.87;1.40;;;28.70;50.40;;;;;;5056320;28;20540;-80
2022/07/22 05:11:32;;;;;;;3.43;1.63;;;28.80;50.50;;;;;;5055963;28;20526;-79
2022/07/22 05:14:00;;;;;;;1.87;1.30;;;28.80;50.40;;;;;;5055254;28;20501;-79
2022/07/22 05:16:28;;;;;;;2.90;1.40;;;28.80;50.50;;;;;;5044757;28;20442;-79
2022/07/22 05:18:56;;;;;;;2.90;1.40;;;28.70;50.40;;;;;;5053723;28;20409;-79
2022/07/22 05:21:25;;;;;;;2.60;1.67;;;28.80;50.40;;;;;;5055353;28;20470;-80
2022/07/22 05:23:55;;;;;;;1.93;1.30;;;28.80;50.50;;;;;;5054627;28;20553;-80
2022/07/22 05:26:24;;;;;;;1.97;1.57;;;28.80;50.40;;;;;;5054410;28;20421;-79
2022/07/22 05:28:53;;;;;;;1.83;1.50;;;28.80;50.40;;;;;;5055022;28;20557;-78
2022/07/22 05:31:22;;;;;;;2.47;1.67;;;28.80;50.40;;;;;;5052286;28;20448;-80
2022/07/22 05:33:50;;;;;;;3.60;1.73;;;28.80;50.40;;;;;;5045259;28;20444;-80
2022/07/22 05:36:18;;;;;;;1.40;1.30;;;28.80;50.40;;;;;;5052380;28;20490;-80
2022/07/22 05:38:46;;;;;;;1.53;1.43;;;28.90;50.40;;;;;;5054051;28;20477;-80
2022/07/22 05:41:15;;;;;;;2.30;1.60;;;28.80;50.20;;;;;;5054634;28;20442;-80
2022/07/22 05:43:43;;;;;;;1.63;1.53;;;28.90;50.40;;;;;;5055312;28;20833;-80
2022/07/22 05:46:11;;;;;;;1.77;1.50;;;28.90;50.30;;;;;;5055052;28;20443;-79
2022/07/22 05:48:39;;;;;;;2.27;1.50;;;28.80;50.20;;;;;;5053253;28;20528;-79
2022/07/22 05:51:11;;;;;;;3.17;1.40;;;28.90;50.30;;;;;;5048632;28;20439;-79
2022/07/22 05:53:39;;;;;;;1.60;1.50;;;28.90;50.30;;;;;;5054782;28;20441;-79
2022/07/22 05:56:08;;;;;;;2.50;1.60;;;28.90;50.20;;;;;;5055001;28;20442;-78
2022/07/22 05:58:37;;;;;;;3.47;1.37;;;28.90;50.20;;;;;;5055269;28;20421;-78
2022/07/22 06:01:05;;;;;;;1.50;1.40;;;28.90;50.20;;;;;;5055677;28;20459;-79
2022/07/22 06:03:33;;;;;;;3.97;1.87;;;28.90;50.20;;;;;;5054830;28;20474;-78
2022/07/22 06:06:02;;;;;;;1.90;1.57;;;29.00;50.10;;;;;;5047154;28;20439;-79
2022/07/22 06:08:29;;;;;;;4.77;1.53;;;29.00;50.10;;;;;;5054879;28;20542;-79
2022/07/22 06:10:57;;;;;;;2.20;1.67;;;29.00;50.00;;;;;;5055617;28;20501;-79
2022/07/22 06:13:25;;;;;;;1.70;1.60;;;29.00;50.00;;;;;;5047302;28;20453;-79
2022/07/22 06:15:54;;;;;;;2.70;1.83;;;29.00;49.90;;;;;;5041393;28;20436;-78
2022/07/22 06:18:22;;;;;;;3.70;1.40;;;29.00;49.90;;;;;;5036531;28;20429;-78
2022/07/22 06:20:50;;;;;;;3.90;1.40;;;29.00;49.80;;;;;;5044763;28;20466;-79
2022/07/22 06:23:18;;;;;;;1.70;1.60;;;29.00;49.70;;;;;;5053701;28;20437;-79
2022/07/22 06:25:46;;;;;;;1.60;1.47;;;29.10;49.70;;;;;;5053302;28;20477;-79
2022/07/22 06:28:13;;;;;;;4.00;1.27;;;29.00;49.60;;;;;;5053711;28;20517;-79
2022/07/22 06:30:41;;;;;;;2.20;1.40;;;29.10;49.60;;;;;;5053222;28;20471;-79
2022/07/22 06:33:10;;;;;;;2.20;1.40;;;29.10;49.60;;;;;;5053763;28;20433;-79
2022/07/22 06:35:39;;;;;;;4.27;1.80;;;29.20;49.50;;;;;;5052358;28;20459;-78
2022/07/22 06:38:07;;;;;;;2.97;1.53;;;29.20;49.40;;;;;;5048805;28;20450;-79
2022/07/22 06:40:35;;;;;;;1.70;1.50;;;29.20;49.40;;;;;;5033214;28;20414;-79
2022/07/22 06:43:04;;;;;;;3.10;1.43;;;29.20;49.20;;;;;;5033532;28;20491;-79
2022/07/22 06:45:32;;;;;;;2.40;1.47;;;29.20;49.30;;;;;;5033320;28;20429;-79
2022/07/22 06:48:00;;;;;;;1.80;1.70;;;29.20;49.20;;;;;;5033697;28;20871;-79
2022/07/22 06:50:29;;;;;;;4.50;1.57;;;29.20;49.10;;;;;;5033227;28;20446;-79
2022/07/22 06:52:57;;;;;;;5.10;2.00;;;29.20;49.00;;;;;;5038128;28;20941;-79
2022/07/22 06:55:25;;;;;;;2.60;1.40;;;29.20;49.00;;;;;;5044675;28;20446;-79
2022/07/22 06:57:53;;;;;;;2.90;1.60;;;29.30;49.30;;;;;;5053584;28;20428;-79
2022/07/22 07:00:20;;;;;;;1.70;1.60;;;29.30;48.80;;;;;;5052879;28;20525;-79
2022/07/22 07:02:48;;;;;;;2.50;1.60;;;29.30;48.80;;;;;;5053946;28;20421;-79
2022/07/22 07:05:16;;;;;;;2.13;1.67;;;29.30;48.80;;;;;;5053533;28;20413;-79
2022/07/22 07:07:48;;;;;;;1.63;1.50;;;29.30;48.70;;;;;;5053978;28;20959;-79
2022/07/22 07:10:16;;;;;;;1.57;1.47;;;29.40;48.70;;;;;;5051925;28;20480;-79
2022/07/22 07:12:44;;;;;;;1.60;1.50;;;29.40;48.60;;;;;;5044329;28;20951;-78
2022/07/22 07:15:11;;;;;;;2.60;1.60;;;29.40;48.60;;;;;;5052363;28;20423;-79
2022/07/22 07:17:56;;;;;;;1.87;1.77;;;29.30;48.40;;;;;;5053534;28;20413;-79
2022/07/22 07:20:24;;;;;;;3.57;1.57;;;29.40;48.60;;;;;;5053342;28;20450;-79
2022/07/22 07:22:54;;;;;;;2.50;1.97;;;29.40;48.50;;;;;;5053417;28;20533;-80
2022/07/22 07:25:21;;;;;;;1.87;1.77;;;29.40;48.40;;;;;;5052204;28;20454;-80
2022/07/22 07:27:52;;;;;;;1.90;1.80;;;29.40;48.40;;;;;;5052949;28;20442;-80
2022/07/22 07:30:21;;;;;;;1.87;1.50;;;29.40;48.40;;;;;;5042083;28;20507;-79
2022/07/22 07:32:49;;;;;;;2.00;1.80;;;29.40;48.30;;;;;;5034784;28;20418;-79
2022/07/22 07:35:17;;;;;;;2.20;1.53;;;29.40;48.10;;;;;;5034086;28;20453;-79
2022/07/22 07:37:45;;;;;;;2.07;1.70;;;29.40;48.10;;;;;;5034272;28;20509;-79
2022/07/22 07:40:14;;;;;;;1.93;1.70;;;29.50;48.10;;;;;;5036762;28;20418;-79
2022/07/22 07:42:42;;;;;;;2.73;1.60;;;29.50;48.00;;;;;;5038896;28;20474;-80
2022/07/22 07:45:16;;;;;;;2.70;2.00;;;29.50;47.90;;;;;;5047582;28;20433;-79
2022/07/22 07:47:48;;;;;;;2.33;1.80;;;29.50;47.90;;;;;;5050433;28;20509;-79
2022/07/22 07:50:16;;;;;;;4.70;1.80;;;29.50;47.90;;;;;;5058141;28;20451;-79
2022/07/22 07:52:47;;;;;;;2.23;1.67;;;29.50;47.80;;;;;;5056937;28;20500;-79
2022/07/22 07:55:38;;;;;;;2.37;1.50;;;29.60;47.90;;;;;;5058262;28;20430;-79
2022/07/22 07:58:06;;;;;;;3.00;1.80;;;29.60;47.70;;;;;;5058664;28;20445;-80
2022/07/22 08:00:34;;;;;;;1.77;1.67;;;29.60;47.70;;;;;;5059080;28;20464;-79
2022/07/22 08:03:02;;;;;;;2.10;1.77;;;29.60;47.60;;;;;;5055929;28;20461;-80
2022/07/22 08:05:30;;;;;;;7.00;1.70;;;29.60;47.60;;;;;;5043588;28;20422;-79
2022/07/22 08:07:58;;;;;;;2.10;1.63;;;29.60;47.60;;;;;;5040859;28;20436;-79
2022/07/22 08:10:26;;;;;;;2.63;1.77;;;29.60;47.50;;;;;;5040084;28;20467;-80
2022/07/22 08:13:15;;;;;;;1.90;1.73;;;29.60;47.50;;;;;;5038938;28;20437;-79
2022/07/22 08:15:45;;;;;;;2.20;1.60;;;29.60;47.50;;;;;;5037485;28;20438;-79
2022/07/22 08:18:13;;;;;;;1.60;1.50;;;29.60;47.60;;;;;;5052457;28;20488;-79
2022/07/22 08:20:42;;;;;;;2.27;1.90;;;29.60;47.60;;;;;;5039575;28;20520;-79
2022/07/22 08:23:10;;;;;;;2.00;1.80;;;29.60;47.40;;;;;;5036983;28;20468;-79
2022/07/22 08:25:37;;;;;;;2.17;1.97;;;29.70;47.40;;;;;;5035680;28;20812;-79
2022/07/22 08:28:05;;;;;;;2.73;2.00;;;29.70;47.40;;;;;;5036754;28;20426;-79
2022/07/22 08:30:35;;;;;;;3.03;1.87;;;29.70;47.30;;;;;;5036620;28;20827;-79
2022/07/22 08:33:03;;;;;;;2.30;1.77;;;29.70;47.20;;;;;;5042949;28;20474;-79
2022/07/22 08:35:31;;;;;;;2.13;1.90;;;29.80;47.20;;;;;;5039502;28;20422;-79
2022/07/22 08:37:59;;;;;;;2.10;1.50;;;29.80;47.00;;;;;;5037373;28;20425;-79
2022/07/22 08:40:27;;;;;;;1.70;1.60;;;29.80;46.90;;;;;;5036610;28;20414;-79
2022/07/22 08:42:55;;;;;;;1.60;1.50;;;29.90;46.90;;;;;;5036706;28;20436;-79
2022/07/22 08:45:23;;;;;;;1.77;1.63;;;29.90;46.90;;;;;;5035643;28;20465;-79
2022/07/22 08:47:53;;;;;;;2.07;1.80;;;29.90;46.80;;;;;;5036378;28;20447;-79
2022/07/22 08:50:21;;;;;;;1.77;1.57;;;29.80;46.80;;;;;;5045546;28;20974;-80
2022/07/22 08:52:49;;;;;;;2.70;1.70;;;29.80;46.80;;;;;;5055091;28;20500;-79
2022/07/22 08:55:16;;;;;;;1.97;1.70;;;29.90;46.90;;;;;;5055752;28;20791;-79
2022/07/22 08:57:46;;;;;;;1.93;1.60;;;29.80;46.80;;;;;;5055324;28;20508;-79
2022/07/22 09:00:17;;;;;;;2.00;1.80;;;29.90;46.80;;;;;;5055378;28;20470;-79
2022/07/22 09:02:45;;;;;;;1.67;1.17;;;29.90;46.80;;;;;;5055639;28;20451;-79
2022/07/22 09:05:15;;;;;;;1.87;1.77;;;29.90;46.70;;;;;;5056290;28;20489;-79
2022/07/22 09:08:03;;;;;;;3.77;1.70;;;29.90;46.60;;;;;;5050725;28;20447;-79
2022/07/22 09:10:32;;;;;;;1.60;1.50;;;30.00;47.00;;;;;;5052587;28;20466;-79
2022/07/22 09:13:01;;;;;;;2.20;1.53;;;30.00;46.40;;;;;;5056377;28;20471;-78
2022/07/22 09:15:30;;;;;;;2.20;1.73;;;30.00;46.40;;;;;;5057058;28;20526;-80
2022/07/22 09:17:58;;;;;;;1.70;1.60;;;29.90;46.30;;;;;;5056585;28;20421;-79
2022/07/22 09:20:32;;;;;;;1.80;1.70;;;29.90;46.20;;;;;;5056892;28;20485;-79
2022/07/22 09:23:00;;;;;;;2.03;1.83;;;30.00;46.80;;;;;;5056364;28;20545;-79
2022/07/22 09:25:29;;;;;;;2.07;1.63;;;30.00;46.20;;;;;;5055700;28;20437;-79
2022/07/22 09:28:09;;;;;;;2.20;2.00;;;30.00;46.00;;;;;;5050266;28;20473;-79
2022/07/22 09:30:40;;;;;;;2.77;1.47;;;30.10;46.00;;;;;;5057712;28;20561;-80
2022/07/22 09:33:09;;;;;;;2.87;1.57;;;30.10;45.80;;;;;;5058221;28;20557;-79
2022/07/22 09:35:39;;;;;;;1.97;1.80;;;30.20;45.80;;;;;;5057388;28;20439;-79
2022/07/22 09:38:14;;;;;;;2.00;1.50;;;30.20;45.60;;;;;;5058662;28;20421;-79
2022/07/22 09:40:44;;;;;;;2.20;1.70;;;30.30;45.50;;;;;;5056796;28;20450;-80
2022/07/22 09:43:13;;;;;;;1.60;1.50;;;30.30;45.40;;;;;;5062205;28;20984;-81
2022/07/22 09:45:46;;;;;;;1.70;1.47;;;30.30;45.50;;;;;;5058718;28;20452;-79
2022/07/22 09:48:14;;;;;;;2.17;1.67;;;30.30;45.40;;;;;;5056179;28;20446;-80
2022/07/22 09:50:43;;;;;;;1.90;1.80;;;30.30;45.60;;;;;;5047994;28;20464;-79
2022/07/22 09:53:11;;;;;;;1.80;1.70;;;30.20;45.60;;;;;;5043575;28;20432;-80
2022/07/22 09:55:40;;;;;;;2.27;1.80;;;30.20;45.70;;;;;;5056601;28;20530;-79
2022/07/22 09:58:08;;;;;;;3.10;1.60;;;30.20;45.70;;;;;;5050106;28;20454;-79
2022/07/22 10:00:36;;;;;;;1.87;1.47;;;30.20;45.90;;;;;;5056704;28;20445;-80
2022/07/22 10:03:05;;;;;;;5.57;2.00;;;30.30;45.90;;;;;;5057141;28;20840;-79
2022/07/22 10:05:34;;;;;;;2.43;1.80;;;30.20;46.00;;;;;;5053938;28;20450;-79
2022/07/22 10:08:05;;;;;;;8.53;1.70;;;30.30;46.10;;;;;;5059258;28;20421;-80
2022/07/22 10:10:34;;;;;;;1.43;1.43;;;30.20;46.00;;;;;;5058945;28;20508;-79
2022/07/22 10:13:02;;;;;;;2.27;1.90;;;30.20;46.10;;;;;;5050487;28;20503;-79
2022/07/22 10:15:31;;;;;;;2.10;1.50;;;30.20;46.20;;;;;;5054345;28;20425;-79
2022/07/22 10:18:04;;;;;;;4.17;1.60;;;30.30;46.10;;;;;;5053372;28;20918;-79
2022/07/22 10:20:32;;;;;;;1.60;1.50;;;30.30;46.00;;;;;;5059182;28;20453;-79
2022/07/22 10:23:00;;;;;;;2.90;2.10;;;30.40;46.00;;;;;;5058284;28;20470;-79
2022/07/22 10:25:51;;;;;;;3.80;1.70;;;30.50;46.00;;;;;;5056487;28;20484;-80
2022/07/22 10:28:24;;;;;;;3.03;1.60;;;30.50;46.00;;;;;;5057972;28;20462;-79
2022/07/22 10:30:52;;;;;;;1.57;1.47;;;30.60;45.70;;;;;;5058302;28;20478;-79
2022/07/22 10:33:22;;;;;;;1.73;1.63;;;30.60;45.60;;;;;;5054147;28;20529;-79
2022/07/22 10:35:58;;;;;;;1.40;1.30;;;30.70;45.50;;;;;;5055977;28;20461;-79
2022/07/22 10:38:26;;;;;;;3.73;1.70;;;30.80;45.50;;;;;;5056349;28;20522;-79
2022/07/22 10:40:56;;;;;;;1.63;1.40;;;30.80;45.40;;;;;;5049000;28;20496;-80
2022/07/22 10:43:25;;;;;;;2.90;1.73;;;30.90;45.30;;;;;;5045049;28;20447;-79
2022/07/22 10:45:54;;;;;;;1.83;1.40;;;31.00;45.20;;;;;;5042148;28;20437;-79
2022/07/22 10:48:24;;;;;;;2.60;1.67;;;31.00;45.10;;;;;;5056601;28;20541;-80
2022/07/22 10:51:05;;;;;;;1.67;1.57;;;31.00;44.90;;;;;;5055185;28;20552;-79
2022/07/22 10:53:41;;;;;;;1.57;1.47;;;31.10;44.90;;;;;;5054753;28;20812;-79
2022/07/22 10:56:19;;;;;;;10.60;1.77;;;31.10;44.80;;;;;;5033837;28;20474;-79
2022/07/22 10:58:55;;;;;;;1.30;1.20;;;31.20;44.50;;;;;;5056138;28;20506;-80
2022/07/22 11:01:26;;;;;;;8.13;1.30;;;31.30;44.20;;;;;;5056585;28;20510;-80
2022/07/22 11:03:54;;;;;;;2.43;1.30;;;31.40;44.00;;;;;;5056757;28;20485;-80
2022/07/22 11:06:28;;;;;;;3.10;1.93;;;31.30;44.00;;;;;;5046929;28;20463;-80
2022/07/22 11:08:57;;;;;;;2.50;1.60;;;31.30;44.10;;;;;;5057281;28;20871;-80
2022/07/22 11:11:41;;;;;;;1.93;1.40;;;31.10;43.90;;;;;;5047076;28;20538;-79
2022/07/22 11:14:16;;;;;;;1.43;1.33;;;31.10;44.80;;;;;;5042898;28;20482;-80
2022/07/22 11:16:44;;;;;;;2.00;1.20;;;31.00;44.40;;;;;;5053317;28;20430;-79
2022/07/22 11:19:12;;;;;;;1.43;1.33;;;31.00;44.50;;;;;;5058075;28;20541;-79
2022/07/22 11:21:40;;;;;;;1.73;1.50;;;31.00;44.40;;;;;;5061898;28;20442;-79
2022/07/22 11:24:11;;;;;;;1.40;1.30;;;31.00;44.40;;;;;;5062015;28;20462;-79
2022/07/22 11:26:41;;;;;;;2.30;1.67;;;31.00;44.50;;;;;;5053602;28;20424;-80
2022/07/22 11:29:09;;;;;;;5.90;1.50;;;31.00;44.50;;;;;;5062417;28;20488;-80
2022/07/22 11:31:37;;;;;;;2.43;1.40;;;31.00;44.40;;;;;;5061941;28;20505;-79
2022/07/22 11:34:07;;;;;;;2.27;1.40;;;31.10;44.30;;;;;;5061939;28;20553;-80
2022/07/22 11:36:36;;;;;;;3.40;1.57;;;31.10;44.10;;;;;;5059293;28;20485;-80
2022/07/22 11:39:04;;;;;;;1.70;1.27;;;31.10;44.20;;;;;;5061199;28;20465;-79
2022/07/22 11:41:31;;;;;;;1.67;1.40;;;31.20;43.90;;;;;;5060252;28;20441;-80
2022/07/22 11:44:01;;;;;;;2.10;1.70;;;31.30;43.70;;;;;;5061985;28;20516;-80
2022/07/22 11:46:28;;;;;;;1.77;1.40;;;31.50;43.60;;;;;;5061318;28;20434;-80
2022/07/22 11:48:58;;;;;;;1.50;1.40;;;31.70;43.40;;;;;;5060671;28;20521;-80
2022/07/22 11:51:29;;;;;;;1.50;1.40;;;32.00;42.30;;;;;;5060460;28;20481;-79
2022/07/22 11:53:57;;;;;;;2.07;1.40;;;31.90;42.20;;;;;;5047729;28;20501;-80
2022/07/22 11:56:26;;;;;;;3.17;1.40;;;31.80;42.10;;;;;;5042709;28;20475;-80
2022/07/22 11:58:55;;;;;;;1.30;1.20;;;31.80;42.10;;;;;;5040583;28;20444;-79
2022/07/22 12:01:25;;;;;;;2.30;1.33;;;31.60;42.30;;;;;;5040152;28;20527;-80
2022/07/22 12:03:54;;;;;;;2.23;1.40;;;31.50;42.50;;;;;;5040389;28;21045;-80
2022/07/22 12:06:22;;;;;;;2.00;1.60;;;31.40;42.70;;;;;;5040325;28;20474;-79
2022/07/22 12:08:52;;;;;;;1.77;1.30;;;31.40;42.80;;;;;;5056388;28;20528;-80
2022/07/22 12:11:21;;;;;;;1.50;1.40;;;31.30;42.80;;;;;;5061295;28;20457;-80
2022/07/22 12:13:52;;;;;;;1.40;1.30;;;31.30;42.80;;;;;;5059507;28;20528;-79
2022/07/22 12:16:26;;;;;;;1.93;1.30;;;31.30;42.90;;;;;;5056535;28;20576;-79
2022/07/22 12:18:56;;;;;;;1.20;1.10;;;31.30;42.70;;;;;;5043925;28;20465;-79
2022/07/22 12:21:25;;;;;;;2.60;1.20;;;31.40;42.70;;;;;;5058556;28;20506;-79
2022/07/22 12:23:55;;;;;;;1.53;1.30;;;31.40;42.60;;;;;;5060163;28;20508;-79
2022/07/22 12:26:45;;;;;;;2.00;1.20;;;31.50;42.60;;;;;;5058569;28;20446;-80
2022/07/22 12:29:18;;;;;;;1.30;1.23;;;31.50;42.90;;;;;;5040981;28;20522;-79
2022/07/22 12:31:49;;;;;;;2.10;1.27;;;31.60;42.30;;;;;;5039584;28;20471;-79
2022/07/22 12:34:17;;;;;;;1.57;1.20;;;31.70;42.30;;;;;;5043776;28;20500;-79
2022/07/22 12:36:45;;;;;;;1.97;1.43;;;31.90;42.10;;;;;;5060557;28;20447;-79
2022/07/22 12:39:15;;;;;;;1.20;1.10;;;32.00;41.90;;;;;;5061085;28;20954;-79
2022/07/22 12:41:47;;;;;;;7.63;1.27;;;32.00;41.70;;;;;;5061037;28;20497;-80
2022/07/22 12:44:19;;;;;;;24.47;1.53;;;30.80;38.50;;;;;;5055432;28;20482;-82
2022/07/22 12:46:49;;;;;;;4.07;1.90;;;29.50;39.30;;;;;;5083164;28;20459;-82
2022/07/22 12:49:18;;;;;;;3.43;1.30;;;28.10;40.40;;;;;;5073368;28;20457;-82
2022/07/22 12:52:08;;;;;;;4.27;2.33;;;27.60;41.40;;;;;;5066202;28;20418;-82
2022/07/22 12:54:36;;;;;;;2.30;1.83;;;27.40;42.90;;;;;;5053369;28;20536;-82
2022/07/22 12:57:04;;;;;;;1.93;1.73;;;27.20;43.20;;;;;;5058643;28;20426;-82